Kezdőlap
METAR-TAF:

METAR-TAF

Repülőterek :

Akulivik, Québec, Kanada

földrajzi szélesség: 60-49N, földrajzi hosszúság: 078-09W, magasság: 20 m

Jelenlegi meteorológiai megfigyelések

A jelentés 38 perccel ezelõtt készült, 12:30 UTC
Kelet-délkeleti szél 25 kt
Hőmérséklet -16°C
Páratartalom 84%
Légköri nyomás 1013 hPa
Látótávolság: 0.2 km
hófúvás

METAR: CYKO 291230Z 12025KT 1/8SM BLSN VV014 M16/M18 A2991 RMK BLSN8 PRESFR SLP133

Idő: 09:08 (13:08 UTC)


TAF: hiányzik

Meteorológiai megfigyelések és előrejelzések több, mint 4000 repülőtéren (METAR és TAF jelentéseket).

A térképen piros és sárga pontok jelzik az elérhető meteorológiai állomásokat.

Mozgassa az egeret a pont fölött, hogy megjelenjen az állomás neve.

Azután kattintson az időjárási megfigyelések és előrejelzések megtekintéséhez.

A térkép megváltoztatása: kattintson a fekete keresztel jelölt zöld gombra ráközelítéshez, a vonallal jelölt zöld gombra távolításhoz, vagy a zöld nyilakra a szomszédos térképek eléréséhez.


METAR-TAF: